sensor_id;sensor_type;location;lat;lon;timestamp;pressure;altitude;pressure_sealevel;temperature;humidity
52957;BME280;38819;42.692;23.342;2023-02-25T00:01:13;94700.59;;;8.41;71.80
52957;BME280;38819;42.692;23.342;2023-02-25T00:03:39;94700.88;;;8.40;71.69
52957;BME280;38819;42.692;23.342;2023-02-25T00:06:06;94703.06;;;8.38;71.64
52957;BME280;38819;42.692;23.342;2023-02-25T00:08:32;94705.25;;;8.35;71.51
52957;BME280;38819;42.692;23.342;2023-02-25T00:11:01;94700.22;;;8.29;71.70
52957;BME280;38819;42.692;23.342;2023-02-25T00:13:27;94698.41;;;8.24;71.97
52957;BME280;38819;42.692;23.342;2023-02-25T00:15:53;94696.34;;;8.35;71.42
52957;BME280;38819;42.692;23.342;2023-02-25T00:18:23;94704.72;;;8.33;71.77
52957;BME280;38819;42.692;23.342;2023-02-25T00:20:48;94706.31;;;8.34;71.60
52957;BME280;38819;42.692;23.342;2023-02-25T00:23:14;94701.16;;;8.38;71.37
52957;BME280;38819;42.692;23.342;2023-02-25T00:25:39;94695.28;;;8.36;71.55
52957;BME280;38819;42.692;23.342;2023-02-25T00:28:04;94692.94;;;8.29;71.58
52957;BME280;38819;42.692;23.342;2023-02-25T00:30:31;94693.44;;;8.31;71.60
52957;BME280;38819;42.692;23.342;2023-02-25T00:32:57;94690.41;;;8.38;71.53
52957;BME280;38819;42.692;23.342;2023-02-25T00:35:23;94689.78;;;8.46;70.98
52957;BME280;38819;42.692;23.342;2023-02-25T00:37:50;94690.88;;;8.45;70.85
52957;BME280;38819;42.692;23.342;2023-02-25T00:40:16;94674.63;;;8.31;71.44
52957;BME280;38819;42.692;23.342;2023-02-25T00:42:41;94669.38;;;8.21;71.96
52957;BME280;38819;42.692;23.342;2023-02-25T00:45:09;94675.69;;;8.11;71.80
52957;BME280;38819;42.692;23.342;2023-02-25T00:47:34;94669.66;;;8.20;71.74
52957;BME280;38819;42.692;23.342;2023-02-25T00:50:00;94665.09;;;8.20;71.94
52957;BME280;38819;42.692;23.342;2023-02-25T00:52:25;94661.38;;;8.16;71.44
52957;BME280;38819;42.692;23.342;2023-02-25T00:54:51;94660.13;;;7.89;72.93
52957;BME280;38819;42.692;23.342;2023-02-25T00:57:17;94673.44;;;8.00;72.44
52957;BME280;38819;42.692;23.342;2023-02-25T00:59:42;94655.88;;;8.07;72.15
52957;BME280;38819;42.692;23.342;2023-02-25T01:02:08;94653.75;;;8.04;72.30
52957;BME280;38819;42.692;23.342;2023-02-25T01:04:33;94643.34;;;7.97;72.16
52957;BME280;38819;42.692;23.342;2023-02-25T01:06:59;94650.03;;;8.00;72.01
52957;BME280;38819;42.692;23.342;2023-02-25T01:09:24;94642.41;;;8.07;71.66
52957;BME280;38819;42.692;23.342;2023-02-25T01:11:50;94631.94;;;8.06;71.87
52957;BME280;38819;42.692;23.342;2023-02-25T01:14:18;94631.56;;;7.93;71.90
52957;BME280;38819;42.692;23.342;2023-02-25T01:16:45;94629.63;;;7.99;71.48
52957;BME280;38819;42.692;23.342;2023-02-25T01:19:16;94629.63;;;7.99;71.81
52957;BME280;38819;42.692;23.342;2023-02-25T01:21:44;94628.28;;;7.96;72.30
52957;BME280;38819;42.692;23.342;2023-02-25T01:24:22;94627.56;;;7.91;72.23
52957;BME280;38819;42.692;23.342;2023-02-25T01:26:50;94630.63;;;8.03;71.97
52957;BME280;38819;42.692;23.342;2023-02-25T01:29:18;94626.78;;;8.09;71.67
52957;BME280;38819;42.692;23.342;2023-02-25T01:31:45;94618.00;;;8.04;71.91
52957;BME280;38819;42.692;23.342;2023-02-25T01:34:15;94617.38;;;8.07;71.58
52957;BME280;38819;42.692;23.342;2023-02-25T01:36:42;94624.66;;;8.06;71.87
52957;BME280;38819;42.692;23.342;2023-02-25T01:39:07;94621.63;;;8.13;71.38
52957;BME280;38819;42.692;23.342;2023-02-25T01:41:35;94623.50;;;8.12;71.01
52957;BME280;38819;42.692;23.342;2023-02-25T01:44:14;94626.28;;;8.07;71.36
52957;BME280;38819;42.692;23.342;2023-02-25T01:46:41;94633.16;;;8.13;71.14
52957;BME280;38819;42.692;23.342;2023-02-25T01:49:52;94623.44;;;8.18;71.00
52957;BME280;38819;42.692;23.342;2023-02-25T01:52:12;94618.72;;;7.90;72.12
52957;BME280;38819;42.692;23.342;2023-02-25T01:54:41;94623.13;;;8.00;71.70
52957;BME280;38819;42.692;23.342;2023-02-25T01:57:10;94631.94;;;8.06;71.34
52957;BME280;38819;42.692;23.342;2023-02-25T01:59:38;94609.84;;;8.09;71.34
52957;BME280;38819;42.692;23.342;2023-02-25T02:02:06;94622.13;;;8.15;71.06
52957;BME280;38819;42.692;23.342;2023-02-25T02:04:31;94621.13;;;8.11;70.92
52957;BME280;38819;42.692;23.342;2023-02-25T02:06:58;94627.78;;;8.13;70.84
52957;BME280;38819;42.692;23.342;2023-02-25T02:09:26;94625.56;;;8.21;70.90
52957;BME280;38819;42.692;23.342;2023-02-25T02:11:55;94618.28;;;8.21;70.78
52957;BME280;38819;42.692;23.342;2023-02-25T02:14:25;94609.78;;;8.14;71.07
52957;BME280;38819;42.692;23.342;2023-02-25T02:17:02;94610.84;;;8.13;70.85
52957;BME280;38819;42.692;23.342;2023-02-25T02:22:09;94609.69;;;8.19;70.88
52957;BME280;38819;42.692;23.342;2023-02-25T02:31:13;94602.22;;;8.16;70.29
52957;BME280;38819;42.692;23.342;2023-02-25T02:41:56;94595.44;;;8.00;71.02
52957;BME280;38819;42.692;23.342;2023-02-25T02:44:39;94583.91;;;7.99;70.77
52957;BME280;38819;42.692;23.342;2023-02-25T02:47:17;94578.22;;;8.01;71.06
52957;BME280;38819;42.692;23.342;2023-02-25T02:49:50;94570.47;;;7.99;71.00
52957;BME280;38819;42.692;23.342;2023-02-25T02:52:22;94567.63;;;8.09;70.50
52957;BME280;38819;42.692;23.342;2023-02-25T02:54:58;94563.19;;;8.00;70.75
52957;BME280;38819;42.692;23.342;2023-02-25T02:57:27;94557.59;;;7.96;70.75
52957;BME280;38819;42.692;23.342;2023-02-25T02:59:57;94557.22;;;8.03;70.59
52957;BME280;38819;42.692;23.342;2023-02-25T03:02:30;94557.63;;;8.10;70.41
52957;BME280;38819;42.692;23.342;2023-02-25T03:05:03;94561.81;;;8.02;70.29
52957;BME280;38819;42.692;23.342;2023-02-25T03:07:34;94565.78;;;8.05;70.37
52957;BME280;38819;42.692;23.342;2023-02-25T03:10:03;94570.88;;;8.06;70.03
52957;BME280;38819;42.692;23.342;2023-02-25T03:12:31;94556.84;;;8.09;70.42
52957;BME280;38819;42.692;23.342;2023-02-25T03:14:57;94552.34;;;8.05;70.42
52957;BME280;38819;42.692;23.342;2023-02-25T03:17:29;94563.09;;;8.05;70.13
52957;BME280;38819;42.692;23.342;2023-02-25T03:20:06;94559.03;;;8.07;70.05
52957;BME280;38819;42.692;23.342;2023-02-25T03:22:35;94562.03;;;8.06;70.13
52957;BME280;38819;42.692;23.342;2023-02-25T03:27:52;94563.84;;;8.10;70.03
52957;BME280;38819;42.692;23.342;2023-02-25T03:30:34;94550.97;;;7.50;71.29
52957;BME280;38819;42.692;23.342;2023-02-25T03:33:12;94555.75;;;7.34;72.32
52957;BME280;38819;42.692;23.342;2023-02-25T03:35:41;94565.50;;;7.49;71.67
52957;BME280;38819;42.692;23.342;2023-02-25T03:38:11;94548.16;;;7.60;71.44
52957;BME280;38819;42.692;23.342;2023-02-25T03:40:40;94566.16;;;7.60;71.19
52957;BME280;38819;42.692;23.342;2023-02-25T03:43:14;94571.69;;;7.69;70.69
52957;BME280;38819;42.692;23.342;2023-02-25T03:45:42;94564.91;;;7.71;70.68
52957;BME280;38819;42.692;23.342;2023-02-25T03:48:10;94560.38;;;7.72;70.93
52957;BME280;38819;42.692;23.342;2023-02-25T03:50:41;94541.31;;;7.68;70.81
52957;BME280;38819;42.692;23.342;2023-02-25T03:53:08;94539.41;;;7.50;71.16
52957;BME280;38819;42.692;23.342;2023-02-25T03:55:33;94538.03;;;7.52;70.97
52957;BME280;38819;42.692;23.342;2023-02-25T03:57:59;94539.69;;;7.48;70.99
52957;BME280;38819;42.692;23.342;2023-02-25T04:00:30;94534.22;;;7.58;70.54
52957;BME280;38819;42.692;23.342;2023-02-25T04:02:56;94542.03;;;7.55;70.49
52957;BME280;38819;42.692;23.342;2023-02-25T04:05:23;94544.84;;;7.45;70.83
52957;BME280;38819;42.692;23.342;2023-02-25T04:07:52;94547.03;;;7.42;70.54
52957;BME280;38819;42.692;23.342;2023-02-25T04:10:19;94559.97;;;7.40;70.45
52957;BME280;38819;42.692;23.342;2023-02-25T04:12:45;94547.91;;;7.38;70.59
52957;BME280;38819;42.692;23.342;2023-02-25T04:15:11;94553.28;;;7.38;70.55
52957;BME280;38819;42.692;23.342;2023-02-25T04:17:38;94554.25;;;7.47;70.21
52957;BME280;38819;42.692;23.342;2023-02-25T04:20:04;94557.00;;;7.42;70.35
52957;BME280;38819;42.692;23.342;2023-02-25T04:22:31;94564.47;;;7.45;70.28
52957;BME280;38819;42.692;23.342;2023-02-25T04:24:57;94566.06;;;7.46;70.50
52957;BME280;38819;42.692;23.342;2023-02-25T04:27:22;94556.94;;;7.47;70.24
52957;BME280;38819;42.692;23.342;2023-02-25T04:29:48;94543.41;;;7.52;70.60
52957;BME280;38819;42.692;23.342;2023-02-25T04:32:13;94545.38;;;7.47;70.45
52957;BME280;38819;42.692;23.342;2023-02-25T04:34:39;94537.53;;;7.50;69.90
52957;BME280;38819;42.692;23.342;2023-02-25T04:37:04;94529.94;;;7.33;70.45
52957;BME280;38819;42.692;23.342;2023-02-25T04:39:34;94533.81;;;7.27;70.19
52957;BME280;38819;42.692;23.342;2023-02-25T04:42:00;94529.81;;;7.24;70.86
52957;BME280;38819;42.692;23.342;2023-02-25T04:44:25;94522.72;;;7.34;70.69
52957;BME280;38819;42.692;23.342;2023-02-25T04:46:51;94512.81;;;7.29;70.65
52957;BME280;38819;42.692;23.342;2023-02-25T04:49:19;94518.78;;;7.26;70.85
52957;BME280;38819;42.692;23.342;2023-02-25T04:51:47;94494.75;;;7.35;70.33
52957;BME280;38819;42.692;23.342;2023-02-25T04:54:14;94486.25;;;6.84;72.18
52957;BME280;38819;42.692;23.342;2023-02-25T04:56:40;94507.59;;;6.95;72.01
52957;BME280;38819;42.692;23.342;2023-02-25T04:59:06;94490.13;;;6.97;72.10
52957;BME280;38819;42.692;23.342;2023-02-25T05:01:31;94509.94;;;7.01;72.18
52957;BME280;38819;42.692;23.342;2023-02-25T05:03:59;94503.13;;;7.09;71.86
52957;BME280;38819;42.692;23.342;2023-02-25T05:06:27;94490.69;;;7.18;71.53
52957;BME280;38819;42.692;23.342;2023-02-25T05:08:54;94489.38;;;7.16;71.68
52957;BME280;38819;42.692;23.342;2023-02-25T05:11:22;94487.13;;;7.23;71.35
52957;BME280;38819;42.692;23.342;2023-02-25T05:13:48;94473.25;;;7.16;71.69
52957;BME280;38819;42.692;23.342;2023-02-25T05:16:14;94477.44;;;7.03;72.38
52957;BME280;38819;42.692;23.342;2023-02-25T05:18:45;94495.91;;;6.85;72.80
52957;BME280;38819;42.692;23.342;2023-02-25T05:21:22;94500.78;;;6.83;72.49
52957;BME280;38819;42.692;23.342;2023-02-25T05:23:49;94503.19;;;6.85;72.56
52957;BME280;38819;42.692;23.342;2023-02-25T05:26:17;94495.41;;;6.83;72.61
52957;BME280;38819;42.692;23.342;2023-02-25T05:28:54;94518.50;;;6.79;72.44
52957;BME280;38819;42.692;23.342;2023-02-25T05:31:20;94502.19;;;6.76;72.68
52957;BME280;38819;42.692;23.342;2023-02-25T05:33:47;94492.78;;;6.25;74.27
52957;BME280;38819;42.692;23.342;2023-02-25T05:36:14;94511.22;;;6.32;74.51
52957;BME280;38819;42.692;23.342;2023-02-25T05:38:41;94510.03;;;6.43;73.93
52957;BME280;38819;42.692;23.342;2023-02-25T05:41:07;94531.50;;;6.43;73.91
52957;BME280;38819;42.692;23.342;2023-02-25T05:43:33;94542.22;;;6.43;73.94
52957;BME280;38819;42.692;23.342;2023-02-25T05:45:59;94532.16;;;6.59;73.42
52957;BME280;38819;42.692;23.342;2023-02-25T05:48:30;94528.69;;;6.58;73.45
52957;BME280;38819;42.692;23.342;2023-02-25T05:51:07;94558.25;;;6.77;73.01
52957;BME280;38819;42.692;23.342;2023-02-25T05:53:34;94550.91;;;6.88;72.43
52957;BME280;38819;42.692;23.342;2023-02-25T05:56:05;94560.94;;;7.01;72.08
52957;BME280;38819;42.692;23.342;2023-02-25T05:58:32;94558.19;;;7.07;72.06
52957;BME280;38819;42.692;23.342;2023-02-25T06:00:58;94538.84;;;7.10;72.15
52957;BME280;38819;42.692;23.342;2023-02-25T06:03:23;94539.53;;;7.20;72.16
52957;BME280;38819;42.692;23.342;2023-02-25T06:05:49;94566.25;;;7.31;71.74
52957;BME280;38819;42.692;23.342;2023-02-25T06:08:14;94554.44;;;7.32;71.46
52957;BME280;38819;42.692;23.342;2023-02-25T06:10:40;94534.88;;;7.26;71.53
52957;BME280;38819;42.692;23.342;2023-02-25T06:13:10;94554.09;;;7.38;71.34
52957;BME280;38819;42.692;23.342;2023-02-25T06:15:39;94558.28;;;7.45;71.02
52957;BME280;38819;42.692;23.342;2023-02-25T06:18:05;94564.91;;;7.52;71.04
52957;BME280;38819;42.692;23.342;2023-02-25T06:20:31;94551.41;;;7.57;71.64
52957;BME280;38819;42.692;23.342;2023-02-25T06:22:57;94539.28;;;7.60;71.41
52957;BME280;38819;42.692;23.342;2023-02-25T06:25:23;94548.38;;;7.64;71.54
52957;BME280;38819;42.692;23.342;2023-02-25T06:27:56;94542.78;;;7.79;71.39
52957;BME280;38819;42.692;23.342;2023-02-25T06:30:22;94528.31;;;7.75;71.31
52957;BME280;38819;42.692;23.342;2023-02-25T06:32:47;94540.81;;;7.85;71.27
52957;BME280;38819;42.692;23.342;2023-02-25T06:35:13;94563.75;;;7.96;71.18
52957;BME280;38819;42.692;23.342;2023-02-25T06:37:39;94567.97;;;8.03;71.11
52957;BME280;38819;42.692;23.342;2023-02-25T06:40:04;94560.91;;;8.07;71.12
52957;BME280;38819;42.692;23.342;2023-02-25T06:42:31;94548.78;;;8.09;71.06
52957;BME280;38819;42.692;23.342;2023-02-25T06:44:57;94538.28;;;7.94;71.83
52957;BME280;38819;42.692;23.342;2023-02-25T06:47:22;94541.78;;;8.08;71.33
52957;BME280;38819;42.692;23.342;2023-02-25T06:49:48;94538.97;;;8.19;71.29
52957;BME280;38819;42.692;23.342;2023-02-25T06:52:13;94531.81;;;8.28;71.33
52957;BME280;38819;42.692;23.342;2023-02-25T06:54:39;94536.03;;;8.34;70.82
52957;BME280;38819;42.692;23.342;2023-02-25T06:57:04;94536.16;;;8.43;70.65
52957;BME280;38819;42.692;23.342;2023-02-25T06:59:30;94521.75;;;8.52;70.24
52957;BME280;38819;42.692;23.342;2023-02-25T07:01:55;94520.88;;;8.57;70.70
52957;BME280;38819;42.692;23.342;2023-02-25T07:04:21;94516.47;;;8.61;70.19
52957;BME280;38819;42.692;23.342;2023-02-25T07:06:46;94507.22;;;8.67;70.16
52957;BME280;38819;42.692;23.342;2023-02-25T07:09:11;94499.53;;;8.88;69.65
52957;BME280;38819;42.692;23.342;2023-02-25T07:11:37;94488.59;;;8.99;69.38
52957;BME280;38819;42.692;23.342;2023-02-25T07:14:04;94485.78;;;9.04;69.22
52957;BME280;38819;42.692;23.342;2023-02-25T07:16:30;94473.59;;;9.06;69.32
52957;BME280;38819;42.692;23.342;2023-02-25T07:18:56;94481.47;;;9.17;68.72
52957;BME280;38819;42.692;23.342;2023-02-25T07:21:23;94482.25;;;9.31;67.97
52957;BME280;38819;42.692;23.342;2023-02-25T07:23:48;94486.22;;;9.34;67.49
52957;BME280;38819;42.692;23.342;2023-02-25T07:26:14;94490.50;;;9.49;67.26
52957;BME280;38819;42.692;23.342;2023-02-25T07:28:41;94478.13;;;9.48;67.49
52957;BME280;38819;42.692;23.342;2023-02-25T07:31:16;94458.53;;;9.56;67.39
52957;BME280;38819;42.692;23.342;2023-02-25T07:33:42;94456.22;;;9.63;66.95
52957;BME280;38819;42.692;23.342;2023-02-25T07:36:09;94448.00;;;9.68;66.51
52957;BME280;38819;42.692;23.342;2023-02-25T07:38:36;94451.88;;;9.76;66.19
52957;BME280;38819;42.692;23.342;2023-02-25T07:41:10;94447.34;;;9.85;65.66
52957;BME280;38819;42.692;23.342;2023-02-25T07:43:36;94429.34;;;9.94;65.29
52957;BME280;38819;42.692;23.342;2023-02-25T07:46:02;94431.13;;;9.99;65.14
52957;BME280;38819;42.692;23.342;2023-02-25T07:48:27;94416.56;;;10.09;64.93
52957;BME280;38819;42.692;23.342;2023-02-25T07:50:53;94411.69;;;10.19;64.74
52957;BME280;38819;42.692;23.342;2023-02-25T07:53:20;94410.66;;;10.29;64.34
52957;BME280;38819;42.692;23.342;2023-02-25T07:55:47;94411.63;;;10.33;64.20
52957;BME280;38819;42.692;23.342;2023-02-25T07:58:13;94403.25;;;10.44;63.87
52957;BME280;38819;42.692;23.342;2023-02-25T08:00:39;94414.13;;;10.52;63.19
52957;BME280;38819;42.692;23.342;2023-02-25T08:03:09;94406.97;;;10.56;62.84
52957;BME280;38819;42.692;23.342;2023-02-25T08:05:36;94408.88;;;10.56;62.62
52957;BME280;38819;42.692;23.342;2023-02-25T08:08:03;94397.44;;;10.59;62.37
52957;BME280;38819;42.692;23.342;2023-02-25T08:10:29;94398.25;;;10.60;62.73
52957;BME280;38819;42.692;23.342;2023-02-25T08:12:54;94396.50;;;10.64;62.34
52957;BME280;38819;42.692;23.342;2023-02-25T08:15:20;94404.41;;;10.51;62.46
52957;BME280;38819;42.692;23.342;2023-02-25T08:17:45;94395.97;;;10.44;62.44
52957;BME280;38819;42.692;23.342;2023-02-25T08:20:13;94388.50;;;10.41;62.51
52957;BME280;38819;42.692;23.342;2023-02-25T08:22:38;94389.94;;;10.47;62.57
52957;BME280;38819;42.692;23.342;2023-02-25T08:25:04;94394.22;;;10.40;62.46
52957;BME280;38819;42.692;23.342;2023-02-25T08:27:30;94392.13;;;10.36;62.64
52957;BME280;38819;42.692;23.342;2023-02-25T08:29:56;94385.84;;;10.27;63.18
52957;BME280;38819;42.692;23.342;2023-02-25T08:32:22;94384.69;;;10.11;63.65
52957;BME280;38819;42.692;23.342;2023-02-25T08:34:50;94389.78;;;10.12;63.39
52957;BME280;38819;42.692;23.342;2023-02-25T08:37:16;94390.88;;;10.11;63.36
52957;BME280;38819;42.692;23.342;2023-02-25T08:39:41;94370.50;;;10.05;63.57
52957;BME280;38819;42.692;23.342;2023-02-25T08:42:07;94360.16;;;9.98;63.96
52957;BME280;38819;42.692;23.342;2023-02-25T08:44:36;94376.22;;;10.04;64.00
52957;BME280;38819;42.692;23.342;2023-02-25T08:47:02;94368.19;;;10.12;64.27
52957;BME280;38819;42.692;23.342;2023-02-25T08:49:29;94362.53;;;10.23;64.27
52957;BME280;38819;42.692;23.342;2023-02-25T08:51:55;94352.19;;;10.25;64.35
52957;BME280;38819;42.692;23.342;2023-02-25T08:54:20;94356.28;;;10.13;64.77
52957;BME280;38819;42.692;23.342;2023-02-25T08:56:49;94361.50;;;10.10;65.15
52957;BME280;38819;42.692;23.342;2023-02-25T08:59:15;94361.03;;;10.08;65.36
52957;BME280;38819;42.692;23.342;2023-02-25T09:01:41;94354.63;;;10.04;65.74
52957;BME280;38819;42.692;23.342;2023-02-25T09:04:17;94361.34;;;10.15;65.70
52957;BME280;38819;42.692;23.342;2023-02-25T09:06:43;94364.41;;;10.22;65.83
52957;BME280;38819;42.692;23.342;2023-02-25T09:09:11;94367.09;;;10.22;65.95
52957;BME280;38819;42.692;23.342;2023-02-25T09:11:37;94360.00;;;10.26;66.05
52957;BME280;38819;42.692;23.342;2023-02-25T09:14:03;94348.50;;;10.20;66.46
52957;BME280;38819;42.692;23.342;2023-02-25T09:16:29;94351.41;;;10.24;66.65
52957;BME280;38819;42.692;23.342;2023-02-25T09:18:54;94338.22;;;10.23;67.14
52957;BME280;38819;42.692;23.342;2023-02-25T09:21:20;94348.78;;;10.33;66.96
52957;BME280;38819;42.692;23.342;2023-02-25T09:23:46;94343.31;;;10.24;66.72
52957;BME280;38819;42.692;23.342;2023-02-25T09:26:12;94324.44;;;10.24;66.60
52957;BME280;38819;42.692;23.342;2023-02-25T09:28:38;94340.41;;;10.20;67.00
52957;BME280;38819;42.692;23.342;2023-02-25T09:31:03;94339.16;;;10.18;66.83
52957;BME280;38819;42.692;23.342;2023-02-25T09:33:30;94335.53;;;10.23;66.73
52957;BME280;38819;42.692;23.342;2023-02-25T09:36:09;94323.75;;;10.18;66.82
52957;BME280;38819;42.692;23.342;2023-02-25T09:38:36;94319.34;;;10.23;66.98
52957;BME280;38819;42.692;23.342;2023-02-25T09:41:08;94310.63;;;10.26;66.68
52957;BME280;38819;42.692;23.342;2023-02-25T09:43:41;94294.06;;;10.18;66.85
52957;BME280;38819;42.692;23.342;2023-02-25T09:46:16;94307.16;;;10.34;66.17
52957;BME280;38819;42.692;23.342;2023-02-25T09:48:53;94289.09;;;10.43;65.76
52957;BME280;38819;42.692;23.342;2023-02-25T09:51:25;94273.84;;;10.38;65.93
52957;BME280;38819;42.692;23.342;2023-02-25T09:53:56;94286.41;;;10.52;65.69
52957;BME280;38819;42.692;23.342;2023-02-25T09:56:28;94282.78;;;10.56;65.38
52957;BME280;38819;42.692;23.342;2023-02-25T09:58:58;94293.13;;;10.63;65.18
52957;BME280;38819;42.692;23.342;2023-02-25T10:01:46;94269.44;;;10.51;65.39
52957;BME280;38819;42.692;23.342;2023-02-25T10:06:42;94288.97;;;10.66;64.04
52957;BME280;38819;42.692;23.342;2023-02-25T10:09:29;94283.44;;;10.71;63.83
52957;BME280;38819;42.692;23.342;2023-02-25T10:17:53;94258.19;;;10.84;60.87
52957;BME280;38819;42.692;23.342;2023-02-25T10:20:59;94254.84;;;10.96;62.90
52957;BME280;38819;42.692;23.342;2023-02-25T10:26:11;94232.72;;;11.38;57.95
52957;BME280;38819;42.692;23.342;2023-02-25T10:28:41;94216.19;;;11.30;61.36
52957;BME280;38819;42.692;23.342;2023-02-25T10:31:12;94214.13;;;11.36;61.15
52957;BME280;38819;42.692;23.342;2023-02-25T10:33:40;94205.50;;;11.34;60.69
52957;BME280;38819;42.692;23.342;2023-02-25T10:36:10;94204.72;;;11.34;59.38
52957;BME280;38819;42.692;23.342;2023-02-25T10:38:42;94205.06;;;11.32;59.80
52957;BME280;38819;42.692;23.342;2023-02-25T10:41:10;94202.34;;;11.32;59.38
52957;BME280;38819;42.692;23.342;2023-02-25T10:43:36;94182.78;;;11.35;59.43
52957;BME280;38819;42.692;23.342;2023-02-25T10:46:10;94200.59;;;11.36;57.47
52957;BME280;38819;42.692;23.342;2023-02-25T10:48:39;94198.97;;;11.44;57.96
52957;BME280;38819;42.692;23.342;2023-02-25T10:51:08;94190.03;;;11.52;57.70
52957;BME280;38819;42.692;23.342;2023-02-25T10:53:40;94179.22;;;11.52;57.89
52957;BME280;38819;42.692;23.342;2023-02-25T10:56:25;94185.91;;;11.55;57.46
52957;BME280;38819;42.692;23.342;2023-02-25T10:59:24;94181.91;;;11.61;57.23
52957;BME280;38819;42.692;23.342;2023-02-25T11:01:51;94180.75;;;11.71;56.74
52957;BME280;38819;42.692;23.342;2023-02-25T11:04:19;94184.69;;;11.82;56.21
52957;BME280;38819;42.692;23.342;2023-02-25T11:06:46;94169.53;;;11.90;56.08
52957;BME280;38819;42.692;23.342;2023-02-25T11:11:58;94165.00;;;12.11;54.10
52957;BME280;38819;42.692;23.342;2023-02-25T11:14:32;94164.94;;;12.20;52.81
52957;BME280;38819;42.692;23.342;2023-02-25T11:19:42;94148.44;;;12.34;52.60
52957;BME280;38819;42.692;23.342;2023-02-25T11:22:15;94158.59;;;12.37;53.33
52957;BME280;38819;42.692;23.342;2023-02-25T11:24:41;94139.78;;;12.40;51.51
52957;BME280;38819;42.692;23.342;2023-02-25T11:27:36;94132.97;;;12.55;51.23
52957;BME280;38819;42.692;23.342;2023-02-25T11:30:14;94128.97;;;12.62;51.33
52957;BME280;38819;42.692;23.342;2023-02-25T11:32:44;94127.75;;;12.71;51.63
52957;BME280;38819;42.692;23.342;2023-02-25T11:35:20;94125.72;;;12.68;51.29
52957;BME280;38819;42.692;23.342;2023-02-25T11:37:48;94124.16;;;12.79;50.91
52957;BME280;38819;42.692;23.342;2023-02-25T11:45:24;94123.34;;;13.00;49.07
52957;BME280;38819;42.692;23.342;2023-02-25T11:47:53;94122.78;;;13.07;48.91
52957;BME280;38819;42.692;23.342;2023-02-25T11:50:24;94139.28;;;13.14;48.76
52957;BME280;38819;42.692;23.342;2023-02-25T11:53:04;94116.41;;;13.24;48.06
52957;BME280;38819;42.692;23.342;2023-02-25T11:58:46;94134.97;;;13.34;47.61
52957;BME280;38819;42.692;23.342;2023-02-25T12:23:36;94130.72;;;14.07;44.74
52957;BME280;38819;42.692;23.342;2023-02-25T12:29:03;94126.41;;;14.18;44.79
52957;BME280;38819;42.692;23.342;2023-02-25T12:34:43;94091.22;;;14.22;44.95
52957;BME280;38819;42.692;23.342;2023-02-25T12:45:45;94082.09;;;14.42;43.79
52957;BME280;38819;42.692;23.342;2023-02-25T12:51:08;94076.72;;;14.58;43.06
52957;BME280;38819;42.692;23.342;2023-02-25T12:56:52;94045.13;;;14.66;42.85
52957;BME280;38819;42.692;23.342;2023-02-25T13:07:52;94057.94;;;14.81;41.75
52957;BME280;38819;42.692;23.342;2023-02-25T13:10:50;94056.75;;;14.95;41.13
52957;BME280;38819;42.692;23.342;2023-02-25T13:30:37;94045.56;;;15.28;40.03
52957;BME280;38819;42.692;23.342;2023-02-25T13:36:07;94055.22;;;15.26;39.52
52957;BME280;38819;42.692;23.342;2023-02-25T13:47:27;94029.84;;;15.37;39.27
52957;BME280;38819;42.692;23.342;2023-02-25T13:52:26;94007.31;;;15.37;39.22
52957;BME280;38819;42.692;23.342;2023-02-25T13:55:03;94017.84;;;15.38;39.52
52957;BME280;38819;42.692;23.342;2023-02-25T14:27:57;93997.13;;;15.34;39.74
52957;BME280;38819;42.692;23.342;2023-02-25T14:30:17;93996.44;;;15.37;39.99
52957;BME280;38819;42.692;23.342;2023-02-25T14:35:40;93992.28;;;15.43;39.39
52957;BME280;38819;42.692;23.342;2023-02-25T14:38:21;94016.84;;;15.47;39.38
52957;BME280;38819;42.692;23.342;2023-02-25T14:43:48;93998.88;;;15.42;39.63
52957;BME280;38819;42.692;23.342;2023-02-25T14:49:17;94021.94;;;15.48;39.79
52957;BME280;38819;42.692;23.342;2023-02-25T14:51:54;94014.50;;;15.45;39.91
52957;BME280;38819;42.692;23.342;2023-02-25T15:03:17;94045.28;;;15.49;40.82
52957;BME280;38819;42.692;23.342;2023-02-25T15:22:35;94062.25;;;15.43;41.33
52957;BME280;38819;42.692;23.342;2023-02-25T15:27:49;94051.97;;;15.36;41.34
52957;BME280;38819;42.692;23.342;2023-02-25T15:30:21;94058.53;;;15.35;41.60
52957;BME280;38819;42.692;23.342;2023-02-25T15:43:42;94054.97;;;15.31;41.85
52957;BME280;38819;42.692;23.342;2023-02-25T15:45:51;94045.81;;;15.23;41.91
52957;BME280;38819;42.692;23.342;2023-02-25T15:48:19;94052.94;;;15.28;41.69
52957;BME280;38819;42.692;23.342;2023-02-25T15:50:49;94059.28;;;15.32;41.55
52957;BME280;38819;42.692;23.342;2023-02-25T16:01:00;94071.72;;;15.17;41.49
52957;BME280;38819;42.692;23.342;2023-02-25T16:06:28;94058.91;;;15.17;42.17
52957;BME280;38819;42.692;23.342;2023-02-25T16:09:14;94057.22;;;15.13;42.26
52957;BME280;38819;42.692;23.342;2023-02-25T16:11:47;94053.03;;;15.15;42.11
52957;BME280;38819;42.692;23.342;2023-02-25T16:16:49;94047.94;;;15.14;42.86
52957;BME280;38819;42.692;23.342;2023-02-25T16:19:18;94052.81;;;15.08;42.12
52957;BME280;38819;42.692;23.342;2023-02-25T16:21:51;94073.97;;;15.15;42.08
52957;BME280;38819;42.692;23.342;2023-02-25T16:24:18;94064.25;;;15.14;42.23
52957;BME280;38819;42.692;23.342;2023-02-25T16:27:03;94060.09;;;15.04;42.62
52957;BME280;38819;42.692;23.342;2023-02-25T16:29:34;94062.56;;;15.09;42.32
52957;BME280;38819;42.692;23.342;2023-02-25T16:32:37;94060.09;;;15.04;42.83
52957;BME280;38819;42.692;23.342;2023-02-25T16:35:11;94070.91;;;15.00;42.80
52957;BME280;38819;42.692;23.342;2023-02-25T16:37:45;94074.91;;;15.07;42.74
52957;BME280;38819;42.692;23.342;2023-02-25T16:40:24;94067.84;;;15.02;42.54
52957;BME280;38819;42.692;23.342;2023-02-25T16:42:51;94071.84;;;15.08;42.32
52957;BME280;38819;42.692;23.342;2023-02-25T16:45:24;94078.88;;;15.09;42.23